sensor_id;sensor_type;location;lat;lon;timestamp;P1;durP1;ratioP1;P2;durP2;ratioP2
19374;SDS011;9823;50.936;4.046;2023-02-15T00:01:53;105.93;;;47.70;;
19374;SDS011;9823;50.936;4.046;2023-02-15T00:04:21;95.07;;;46.87;;
19374;SDS011;9823;50.936;4.046;2023-02-15T00:06:49;101.07;;;47.47;;
19374;SDS011;9823;50.936;4.046;2023-02-15T00:09:18;103.57;;;47.70;;
19374;SDS011;9823;50.936;4.046;2023-02-15T00:11:44;105.97;;;48.17;;
19374;SDS011;9823;50.936;4.046;2023-02-15T00:14:18;102.60;;;48.03;;
19374;SDS011;9823;50.936;4.046;2023-02-15T00:16:44;100.60;;;45.67;;
19374;SDS011;9823;50.936;4.046;2023-02-15T00:19:14;97.47;;;46.83;;
19374;SDS011;9823;50.936;4.046;2023-02-15T00:21:47;104.73;;;46.70;;
19374;SDS011;9823;50.936;4.046;2023-02-15T00:24:17;113.40;;;47.33;;
19374;SDS011;9823;50.936;4.046;2023-02-15T00:26:46;108.77;;;47.70;;
19374;SDS011;9823;50.936;4.046;2023-02-15T00:29:13;103.37;;;47.03;;
19374;SDS011;9823;50.936;4.046;2023-02-15T00:31:39;108.30;;;48.07;;
19374;SDS011;9823;50.936;4.046;2023-02-15T00:36:38;96.40;;;47.87;;
19374;SDS011;9823;50.936;4.046;2023-02-15T00:39:04;107.90;;;48.23;;
19374;SDS011;9823;50.936;4.046;2023-02-15T00:41:31;110.97;;;50.67;;
19374;SDS011;9823;50.936;4.046;2023-02-15T00:43:57;113.83;;;48.50;;
19374;SDS011;9823;50.936;4.046;2023-02-15T00:46:23;104.60;;;46.90;;
19374;SDS011;9823;50.936;4.046;2023-02-15T00:48:49;108.60;;;49.47;;
19374;SDS011;9823;50.936;4.046;2023-02-15T00:51:15;108.93;;;47.83;;
19374;SDS011;9823;50.936;4.046;2023-02-15T00:53:42;113.20;;;48.20;;
19374;SDS011;9823;50.936;4.046;2023-02-15T00:56:09;108.53;;;48.73;;
19374;SDS011;9823;50.936;4.046;2023-02-15T00:58:35;107.90;;;48.57;;
19374;SDS011;9823;50.936;4.046;2023-02-15T01:01:02;118.23;;;47.57;;
19374;SDS011;9823;50.936;4.046;2023-02-15T01:03:34;108.43;;;47.33;;
19374;SDS011;9823;50.936;4.046;2023-02-15T01:06:00;109.87;;;48.30;;
19374;SDS011;9823;50.936;4.046;2023-02-15T01:08:29;106.53;;;45.87;;
19374;SDS011;9823;50.936;4.046;2023-02-15T01:10:56;113.67;;;48.97;;
19374;SDS011;9823;50.936;4.046;2023-02-15T01:13:28;101.43;;;47.10;;
19374;SDS011;9823;50.936;4.046;2023-02-15T01:15:54;109.63;;;47.03;;
19374;SDS011;9823;50.936;4.046;2023-02-15T01:18:21;108.70;;;49.20;;
19374;SDS011;9823;50.936;4.046;2023-02-15T01:20:47;123.17;;;50.93;;
19374;SDS011;9823;50.936;4.046;2023-02-15T01:23:13;105.60;;;47.93;;
19374;SDS011;9823;50.936;4.046;2023-02-15T01:25:40;104.17;;;46.73;;
19374;SDS011;9823;50.936;4.046;2023-02-15T01:28:08;99.87;;;46.43;;
19374;SDS011;9823;50.936;4.046;2023-02-15T01:30:34;107.03;;;45.40;;
19374;SDS011;9823;50.936;4.046;2023-02-15T01:33:00;101.97;;;45.63;;
19374;SDS011;9823;50.936;4.046;2023-02-15T01:35:29;101.07;;;46.07;;
19374;SDS011;9823;50.936;4.046;2023-02-15T01:37:55;106.90;;;46.60;;
19374;SDS011;9823;50.936;4.046;2023-02-15T01:40:22;103.87;;;46.60;;
19374;SDS011;9823;50.936;4.046;2023-02-15T01:42:51;98.13;;;46.77;;
19374;SDS011;9823;50.936;4.046;2023-02-15T01:50:36;104.53;;;46.07;;
19374;SDS011;9823;50.936;4.046;2023-02-15T01:53:05;104.80;;;47.33;;
19374;SDS011;9823;50.936;4.046;2023-02-15T01:55:33;109.20;;;47.47;;
19374;SDS011;9823;50.936;4.046;2023-02-15T01:58:00;101.10;;;47.03;;
19374;SDS011;9823;50.936;4.046;2023-02-15T02:00:26;107.97;;;47.10;;
19374;SDS011;9823;50.936;4.046;2023-02-15T02:02:53;114.57;;;49.13;;
19374;SDS011;9823;50.936;4.046;2023-02-15T02:05:20;102.13;;;48.10;;
19374;SDS011;9823;50.936;4.046;2023-02-15T02:07:46;106.77;;;46.37;;
19374;SDS011;9823;50.936;4.046;2023-02-15T02:10:15;103.53;;;46.60;;
19374;SDS011;9823;50.936;4.046;2023-02-15T02:12:42;109.53;;;47.97;;
19374;SDS011;9823;50.936;4.046;2023-02-15T02:15:09;96.50;;;45.47;;
19374;SDS011;9823;50.936;4.046;2023-02-15T02:33:36;99.30;;;43.27;;
19374;SDS011;9823;50.936;4.046;2023-02-15T02:41:45;92.73;;;44.00;;
19374;SDS011;9823;50.936;4.046;2023-02-15T02:46:52;100.90;;;43.47;;
19374;SDS011;9823;50.936;4.046;2023-02-15T02:49:33;97.03;;;43.47;;
19374;SDS011;9823;50.936;4.046;2023-02-15T02:54:44;98.53;;;45.30;;
19374;SDS011;9823;50.936;4.046;2023-02-15T02:57:13;105.73;;;46.70;;
19374;SDS011;9823;50.936;4.046;2023-02-15T02:59:40;104.20;;;46.23;;
19374;SDS011;9823;50.936;4.046;2023-02-15T03:02:17;108.50;;;48.47;;
19374;SDS011;9823;50.936;4.046;2023-02-15T03:04:45;116.00;;;47.87;;
19374;SDS011;9823;50.936;4.046;2023-02-15T03:07:17;108.30;;;45.63;;
19374;SDS011;9823;50.936;4.046;2023-02-15T03:09:47;107.80;;;47.70;;
19374;SDS011;9823;50.936;4.046;2023-02-15T03:14:50;109.63;;;46.07;;
19374;SDS011;9823;50.936;4.046;2023-02-15T03:17:17;105.70;;;45.80;;
19374;SDS011;9823;50.936;4.046;2023-02-15T03:19:45;109.97;;;47.90;;
19374;SDS011;9823;50.936;4.046;2023-02-15T03:25:30;106.47;;;45.67;;
19374;SDS011;9823;50.936;4.046;2023-02-15T03:28:02;104.73;;;45.10;;
19374;SDS011;9823;50.936;4.046;2023-02-15T03:30:29;100.77;;;45.73;;
19374;SDS011;9823;50.936;4.046;2023-02-15T03:32:56;107.23;;;45.97;;
19374;SDS011;9823;50.936;4.046;2023-02-15T03:35:23;103.97;;;46.33;;
19374;SDS011;9823;50.936;4.046;2023-02-15T03:37:55;99.63;;;45.50;;
19374;SDS011;9823;50.936;4.046;2023-02-15T03:40:24;98.23;;;43.93;;
19374;SDS011;9823;50.936;4.046;2023-02-15T03:43:12;104.17;;;44.47;;
19374;SDS011;9823;50.936;4.046;2023-02-15T03:45:46;98.50;;;43.93;;
19374;SDS011;9823;50.936;4.046;2023-02-15T03:48:24;98.87;;;42.93;;
19374;SDS011;9823;50.936;4.046;2023-02-15T03:50:51;106.60;;;44.83;;
19374;SDS011;9823;50.936;4.046;2023-02-15T03:53:38;92.73;;;43.33;;
19374;SDS011;9823;50.936;4.046;2023-02-15T03:56:05;100.03;;;44.50;;
19374;SDS011;9823;50.936;4.046;2023-02-15T03:58:31;102.33;;;45.13;;
19374;SDS011;9823;50.936;4.046;2023-02-15T04:01:37;91.60;;;42.03;;
19374;SDS011;9823;50.936;4.046;2023-02-15T04:04:20;96.23;;;42.47;;
19374;SDS011;9823;50.936;4.046;2023-02-15T04:06:50;103.93;;;45.40;;
19374;SDS011;9823;50.936;4.046;2023-02-15T04:09:16;103.23;;;46.33;;
19374;SDS011;9823;50.936;4.046;2023-02-15T04:12:00;100.17;;;43.37;;
19374;SDS011;9823;50.936;4.046;2023-02-15T04:14:31;107.73;;;45.27;;
19374;SDS011;9823;50.936;4.046;2023-02-15T04:17:16;99.57;;;43.90;;
19374;SDS011;9823;50.936;4.046;2023-02-15T04:19:42;107.33;;;46.93;;
19374;SDS011;9823;50.936;4.046;2023-02-15T04:22:26;108.63;;;47.27;;
19374;SDS011;9823;50.936;4.046;2023-02-15T04:25:11;109.97;;;47.03;;
19374;SDS011;9823;50.936;4.046;2023-02-15T04:27:37;106.27;;;46.37;;
19374;SDS011;9823;50.936;4.046;2023-02-15T04:30:04;109.70;;;46.47;;
19374;SDS011;9823;50.936;4.046;2023-02-15T04:32:30;111.83;;;48.40;;
19374;SDS011;9823;50.936;4.046;2023-02-15T04:34:58;113.30;;;47.70;;
19374;SDS011;9823;50.936;4.046;2023-02-15T04:37:24;109.73;;;47.70;;
19374;SDS011;9823;50.936;4.046;2023-02-15T04:39:50;112.10;;;47.60;;
19374;SDS011;9823;50.936;4.046;2023-02-15T04:42:16;109.67;;;46.47;;
19374;SDS011;9823;50.936;4.046;2023-02-15T04:44:42;113.53;;;47.13;;
19374;SDS011;9823;50.936;4.046;2023-02-15T04:47:11;110.03;;;47.77;;
19374;SDS011;9823;50.936;4.046;2023-02-15T04:49:39;108.13;;;47.93;;
19374;SDS011;9823;50.936;4.046;2023-02-15T04:52:05;113.10;;;49.30;;
19374;SDS011;9823;50.936;4.046;2023-02-15T04:54:31;119.43;;;47.73;;
19374;SDS011;9823;50.936;4.046;2023-02-15T04:56:57;119.80;;;49.33;;
19374;SDS011;9823;50.936;4.046;2023-02-15T04:59:23;124.37;;;48.57;;
19374;SDS011;9823;50.936;4.046;2023-02-15T05:01:50;116.00;;;49.73;;
19374;SDS011;9823;50.936;4.046;2023-02-15T05:04:16;114.63;;;50.10;;
19374;SDS011;9823;50.936;4.046;2023-02-15T05:06:42;119.93;;;51.73;;
19374;SDS011;9823;50.936;4.046;2023-02-15T05:09:13;120.63;;;50.87;;
19374;SDS011;9823;50.936;4.046;2023-02-15T05:11:39;117.93;;;51.13;;
19374;SDS011;9823;50.936;4.046;2023-02-15T05:14:05;118.00;;;51.90;;
19374;SDS011;9823;50.936;4.046;2023-02-15T05:16:31;126.47;;;53.43;;
19374;SDS011;9823;50.936;4.046;2023-02-15T05:18:59;117.50;;;53.00;;
19374;SDS011;9823;50.936;4.046;2023-02-15T05:21:28;121.30;;;53.60;;
19374;SDS011;9823;50.936;4.046;2023-02-15T05:23:54;118.53;;;52.93;;
19374;SDS011;9823;50.936;4.046;2023-02-15T05:26:21;125.07;;;53.17;;
19374;SDS011;9823;50.936;4.046;2023-02-15T05:29:06;119.20;;;52.77;;
19374;SDS011;9823;50.936;4.046;2023-02-15T05:31:33;110.33;;;49.07;;
19374;SDS011;9823;50.936;4.046;2023-02-15T05:33:59;113.53;;;49.17;;
19374;SDS011;9823;50.936;4.046;2023-02-15T05:36:25;111.67;;;49.27;;
19374;SDS011;9823;50.936;4.046;2023-02-15T05:38:53;109.13;;;50.07;;
19374;SDS011;9823;50.936;4.046;2023-02-15T05:41:19;120.03;;;49.30;;
19374;SDS011;9823;50.936;4.046;2023-02-15T05:43:45;110.23;;;48.67;;
19374;SDS011;9823;50.936;4.046;2023-02-15T05:46:11;109.67;;;48.47;;
19374;SDS011;9823;50.936;4.046;2023-02-15T05:48:44;109.63;;;48.13;;
19374;SDS011;9823;50.936;4.046;2023-02-15T05:51:13;112.67;;;48.87;;
19374;SDS011;9823;50.936;4.046;2023-02-15T05:53:41;109.77;;;47.50;;
19374;SDS011;9823;50.936;4.046;2023-02-15T05:56:08;111.60;;;49.73;;
19374;SDS011;9823;50.936;4.046;2023-02-15T05:58:39;117.33;;;49.83;;
19374;SDS011;9823;50.936;4.046;2023-02-15T06:01:15;112.27;;;49.73;;
19374;SDS011;9823;50.936;4.046;2023-02-15T06:03:42;107.90;;;48.30;;
19374;SDS011;9823;50.936;4.046;2023-02-15T06:06:08;114.70;;;48.37;;
19374;SDS011;9823;50.936;4.046;2023-02-15T06:08:35;121.10;;;48.83;;
19374;SDS011;9823;50.936;4.046;2023-02-15T06:11:01;110.50;;;47.77;;
19374;SDS011;9823;50.936;4.046;2023-02-15T06:13:27;119.03;;;47.80;;
19374;SDS011;9823;50.936;4.046;2023-02-15T06:15:53;114.83;;;48.33;;
19374;SDS011;9823;50.936;4.046;2023-02-15T06:18:22;114.37;;;48.37;;
19374;SDS011;9823;50.936;4.046;2023-02-15T06:20:50;117.57;;;48.87;;
19374;SDS011;9823;50.936;4.046;2023-02-15T06:23:16;108.63;;;47.10;;
19374;SDS011;9823;50.936;4.046;2023-02-15T06:25:44;105.33;;;46.10;;
19374;SDS011;9823;50.936;4.046;2023-02-15T06:28:10;105.90;;;46.93;;
19374;SDS011;9823;50.936;4.046;2023-02-15T06:30:36;111.80;;;46.50;;
19374;SDS011;9823;50.936;4.046;2023-02-15T06:33:04;105.50;;;47.13;;
19374;SDS011;9823;50.936;4.046;2023-02-15T06:35:30;119.33;;;46.30;;
19374;SDS011;9823;50.936;4.046;2023-02-15T06:37:56;106.93;;;44.77;;
19374;SDS011;9823;50.936;4.046;2023-02-15T06:40:22;99.13;;;44.00;;
19374;SDS011;9823;50.936;4.046;2023-02-15T06:42:48;105.70;;;44.37;;
19374;SDS011;9823;50.936;4.046;2023-02-15T06:45:15;109.73;;;44.07;;
19374;SDS011;9823;50.936;4.046;2023-02-15T06:47:41;104.17;;;42.27;;
19374;SDS011;9823;50.936;4.046;2023-02-15T06:50:07;101.90;;;42.90;;
19374;SDS011;9823;50.936;4.046;2023-02-15T06:52:33;102.37;;;42.20;;
19374;SDS011;9823;50.936;4.046;2023-02-15T06:54:59;105.90;;;44.00;;
19374;SDS011;9823;50.936;4.046;2023-02-15T06:57:26;95.77;;;41.27;;
19374;SDS011;9823;50.936;4.046;2023-02-15T06:59:54;98.77;;;41.30;;
19374;SDS011;9823;50.936;4.046;2023-02-15T07:02:20;100.93;;;41.83;;
19374;SDS011;9823;50.936;4.046;2023-02-15T07:04:46;96.73;;;41.67;;
19374;SDS011;9823;50.936;4.046;2023-02-15T07:07:12;98.67;;;42.60;;
19374;SDS011;9823;50.936;4.046;2023-02-15T07:09:40;103.00;;;43.27;;
19374;SDS011;9823;50.936;4.046;2023-02-15T07:12:06;104.40;;;43.07;;
19374;SDS011;9823;50.936;4.046;2023-02-15T07:14:58;99.17;;;41.87;;
19374;SDS011;9823;50.936;4.046;2023-02-15T07:17:24;99.00;;;41.50;;
19374;SDS011;9823;50.936;4.046;2023-02-15T07:19:55;113.70;;;43.13;;
19374;SDS011;9823;50.936;4.046;2023-02-15T07:22:21;103.70;;;44.43;;
19374;SDS011;9823;50.936;4.046;2023-02-15T07:24:48;108.07;;;45.73;;
19374;SDS011;9823;50.936;4.046;2023-02-15T07:27:19;103.00;;;44.63;;
19374;SDS011;9823;50.936;4.046;2023-02-15T07:29:45;110.53;;;45.23;;
19374;SDS011;9823;50.936;4.046;2023-02-15T07:32:11;101.40;;;44.87;;
19374;SDS011;9823;50.936;4.046;2023-02-15T07:34:37;110.33;;;45.17;;
19374;SDS011;9823;50.936;4.046;2023-02-15T07:37:06;113.00;;;46.70;;
19374;SDS011;9823;50.936;4.046;2023-02-15T07:39:32;103.53;;;46.07;;
19374;SDS011;9823;50.936;4.046;2023-02-15T07:41:59;107.57;;;46.27;;
19374;SDS011;9823;50.936;4.046;2023-02-15T07:44:25;102.70;;;45.33;;
19374;SDS011;9823;50.936;4.046;2023-02-15T07:46:51;102.03;;;45.43;;
19374;SDS011;9823;50.936;4.046;2023-02-15T07:49:19;115.03;;;47.73;;
19374;SDS011;9823;50.936;4.046;2023-02-15T07:51:45;109.53;;;46.23;;
19374;SDS011;9823;50.936;4.046;2023-02-15T07:54:11;105.77;;;45.37;;
19374;SDS011;9823;50.936;4.046;2023-02-15T07:56:37;105.30;;;43.97;;
19374;SDS011;9823;50.936;4.046;2023-02-15T07:59:06;98.80;;;43.87;;
19374;SDS011;9823;50.936;4.046;2023-02-15T08:01:36;112.80;;;43.57;;
19374;SDS011;9823;50.936;4.046;2023-02-15T08:04:06;109.67;;;44.43;;
19374;SDS011;9823;50.936;4.046;2023-02-15T08:06:33;104.70;;;44.97;;
19374;SDS011;9823;50.936;4.046;2023-02-15T08:09:00;106.30;;;42.57;;
19374;SDS011;9823;50.936;4.046;2023-02-15T08:11:29;90.30;;;43.07;;
19374;SDS011;9823;50.936;4.046;2023-02-15T08:14:17;102.50;;;43.03;;
19374;SDS011;9823;50.936;4.046;2023-02-15T08:16:52;95.90;;;41.70;;
19374;SDS011;9823;50.936;4.046;2023-02-15T08:19:26;94.70;;;41.20;;
19374;SDS011;9823;50.936;4.046;2023-02-15T08:22:02;95.43;;;41.23;;
19374;SDS011;9823;50.936;4.046;2023-02-15T08:24:36;97.07;;;41.23;;
19374;SDS011;9823;50.936;4.046;2023-02-15T08:27:09;76.87;;;37.40;;
19374;SDS011;9823;50.936;4.046;2023-02-15T08:29:36;85.10;;;38.97;;
19374;SDS011;9823;50.936;4.046;2023-02-15T08:32:04;86.63;;;38.53;;
19374;SDS011;9823;50.936;4.046;2023-02-15T08:34:31;83.43;;;37.63;;
19374;SDS011;9823;50.936;4.046;2023-02-15T08:37:00;83.83;;;39.10;;
19374;SDS011;9823;50.936;4.046;2023-02-15T08:39:26;81.87;;;38.60;;
19374;SDS011;9823;50.936;4.046;2023-02-15T08:41:52;77.90;;;36.73;;
19374;SDS011;9823;50.936;4.046;2023-02-15T08:44:19;73.63;;;35.57;;
19374;SDS011;9823;50.936;4.046;2023-02-15T08:46:46;79.57;;;36.13;;
19374;SDS011;9823;50.936;4.046;2023-02-15T08:49:13;74.83;;;36.70;;
19374;SDS011;9823;50.936;4.046;2023-02-15T08:51:43;74.53;;;36.40;;
19374;SDS011;9823;50.936;4.046;2023-02-15T08:54:11;78.57;;;36.90;;
19374;SDS011;9823;50.936;4.046;2023-02-15T08:56:38;79.07;;;37.90;;
19374;SDS011;9823;50.936;4.046;2023-02-15T08:59:05;72.97;;;35.40;;
19374;SDS011;9823;50.936;4.046;2023-02-15T09:01:32;72.97;;;36.87;;
19374;SDS011;9823;50.936;4.046;2023-02-15T09:04:03;74.33;;;34.17;;
19374;SDS011;9823;50.936;4.046;2023-02-15T09:06:30;73.80;;;37.00;;
19374;SDS011;9823;50.936;4.046;2023-02-15T09:08:56;72.40;;;34.07;;
19374;SDS011;9823;50.936;4.046;2023-02-15T09:11:26;71.60;;;34.17;;
19374;SDS011;9823;50.936;4.046;2023-02-15T09:13:56;69.03;;;34.67;;
19374;SDS011;9823;50.936;4.046;2023-02-15T09:16:24;70.17;;;33.10;;
19374;SDS011;9823;50.936;4.046;2023-02-15T09:18:50;66.23;;;31.57;;
19374;SDS011;9823;50.936;4.046;2023-02-15T09:21:18;65.17;;;32.60;;
19374;SDS011;9823;50.936;4.046;2023-02-15T09:23:45;67.23;;;33.30;;
19374;SDS011;9823;50.936;4.046;2023-02-15T09:26:21;67.37;;;31.83;;
19374;SDS011;9823;50.936;4.046;2023-02-15T09:28:48;64.73;;;30.90;;
19374;SDS011;9823;50.936;4.046;2023-02-15T09:31:17;63.97;;;32.47;;
19374;SDS011;9823;50.936;4.046;2023-02-15T09:33:46;59.67;;;31.10;;
19374;SDS011;9823;50.936;4.046;2023-02-15T09:36:14;61.37;;;30.13;;
19374;SDS011;9823;50.936;4.046;2023-02-15T09:38:40;60.17;;;29.73;;
19374;SDS011;9823;50.936;4.046;2023-02-15T09:43:40;62.40;;;30.23;;
19374;SDS011;9823;50.936;4.046;2023-02-15T09:48:38;68.37;;;30.07;;
19374;SDS011;9823;50.936;4.046;2023-02-15T09:51:29;64.27;;;29.93;;
19374;SDS011;9823;50.936;4.046;2023-02-15T09:54:19;80.87;;;29.53;;
19374;SDS011;9823;50.936;4.046;2023-02-15T09:56:49;60.77;;;27.97;;
19374;SDS011;9823;50.936;4.046;2023-02-15T09:59:30;72.77;;;27.57;;
19374;SDS011;9823;50.936;4.046;2023-02-15T10:02:05;64.17;;;29.27;;
19374;SDS011;9823;50.936;4.046;2023-02-15T10:12:41;62.37;;;27.67;;
19374;SDS011;9823;50.936;4.046;2023-02-15T10:15:12;62.30;;;27.03;;
19374;SDS011;9823;50.936;4.046;2023-02-15T10:27:58;63.30;;;26.87;;
19374;SDS011;9823;50.936;4.046;2023-02-15T10:30:29;58.00;;;26.40;;
19374;SDS011;9823;50.936;4.046;2023-02-15T10:32:59;65.93;;;26.93;;
19374;SDS011;9823;50.936;4.046;2023-02-15T10:35:30;63.13;;;27.30;;
19374;SDS011;9823;50.936;4.046;2023-02-15T10:38:17;59.07;;;26.63;;
19374;SDS011;9823;50.936;4.046;2023-02-15T10:48:23;51.57;;;25.93;;
19374;SDS011;9823;50.936;4.046;2023-02-15T10:56:01;57.33;;;26.60;;
19374;SDS011;9823;50.936;4.046;2023-02-15T11:06:07;55.83;;;26.07;;
19374;SDS011;9823;50.936;4.046;2023-02-15T11:08:40;59.87;;;28.50;;
19374;SDS011;9823;50.936;4.046;2023-02-15T11:11:09;57.70;;;28.60;;
19374;SDS011;9823;50.936;4.046;2023-02-15T11:13:39;62.90;;;28.57;;
19374;SDS011;9823;50.936;4.046;2023-02-15T11:16:14;58.70;;;28.60;;
19374;SDS011;9823;50.936;4.046;2023-02-15T11:18:43;56.00;;;27.97;;
19374;SDS011;9823;50.936;4.046;2023-02-15T11:21:19;60.57;;;26.40;;
19374;SDS011;9823;50.936;4.046;2023-02-15T11:23:46;63.13;;;28.07;;
19374;SDS011;9823;50.936;4.046;2023-02-15T11:28:59;55.83;;;28.03;;
19374;SDS011;9823;50.936;4.046;2023-02-15T11:31:30;60.57;;;30.53;;
19374;SDS011;9823;50.936;4.046;2023-02-15T11:34:04;83.00;;;31.77;;
19374;SDS011;9823;50.936;4.046;2023-02-15T11:36:49;56.23;;;27.77;;
19374;SDS011;9823;50.936;4.046;2023-02-15T11:39:16;61.43;;;28.13;;
19374;SDS011;9823;50.936;4.046;2023-02-15T11:41:46;57.73;;;27.77;;
19374;SDS011;9823;50.936;4.046;2023-02-15T11:44:34;50.73;;;28.07;;
19374;SDS011;9823;50.936;4.046;2023-02-15T11:47:01;67.70;;;29.87;;
19374;SDS011;9823;50.936;4.046;2023-02-15T11:49:31;61.87;;;27.90;;
19374;SDS011;9823;50.936;4.046;2023-02-15T11:52:00;58.63;;;27.93;;
19374;SDS011;9823;50.936;4.046;2023-02-15T11:54:29;55.97;;;27.00;;
19374;SDS011;9823;50.936;4.046;2023-02-15T11:56:59;73.73;;;30.07;;
19374;SDS011;9823;50.936;4.046;2023-02-15T11:59:28;59.40;;;27.33;;
19374;SDS011;9823;50.936;4.046;2023-02-15T12:01:58;63.60;;;29.47;;
19374;SDS011;9823;50.936;4.046;2023-02-15T12:04:31;64.97;;;29.30;;
19374;SDS011;9823;50.936;4.046;2023-02-15T12:09:31;57.47;;;27.93;;
19374;SDS011;9823;50.936;4.046;2023-02-15T12:12:19;64.23;;;28.03;;
19374;SDS011;9823;50.936;4.046;2023-02-15T12:14:49;65.27;;;30.27;;
19374;SDS011;9823;50.936;4.046;2023-02-15T12:17:15;56.43;;;29.93;;
19374;SDS011;9823;50.936;4.046;2023-02-15T12:19:42;76.53;;;30.07;;
19374;SDS011;9823;50.936;4.046;2023-02-15T12:22:21;63.07;;;29.87;;
19374;SDS011;9823;50.936;4.046;2023-02-15T12:24:52;61.83;;;29.77;;
19374;SDS011;9823;50.936;4.046;2023-02-15T12:27:29;57.87;;;30.27;;
19374;SDS011;9823;50.936;4.046;2023-02-15T12:30:38;71.10;;;30.47;;
19374;SDS011;9823;50.936;4.046;2023-02-15T12:32:47;70.13;;;31.03;;
19374;SDS011;9823;50.936;4.046;2023-02-15T12:35:26;71.10;;;32.13;;
19374;SDS011;9823;50.936;4.046;2023-02-15T12:37:54;57.50;;;30.27;;
19374;SDS011;9823;50.936;4.046;2023-02-15T12:42:48;71.23;;;30.50;;
19374;SDS011;9823;50.936;4.046;2023-02-15T12:45:25;55.77;;;29.73;;
19374;SDS011;9823;50.936;4.046;2023-02-15T12:48:07;64.40;;;30.80;;
19374;SDS011;9823;50.936;4.046;2023-02-15T12:50:33;57.50;;;29.03;;
19374;SDS011;9823;50.936;4.046;2023-02-15T12:53:34;62.87;;;30.60;;
19374;SDS011;9823;50.936;4.046;2023-02-15T12:56:02;64.03;;;30.57;;
19374;SDS011;9823;50.936;4.046;2023-02-15T12:58:35;54.30;;;28.60;;
19374;SDS011;9823;50.936;4.046;2023-02-15T13:01:14;58.20;;;29.67;;
19374;SDS011;9823;50.936;4.046;2023-02-15T13:06:17;60.33;;;29.57;;
19374;SDS011;9823;50.936;4.046;2023-02-15T13:08:50;57.40;;;30.03;;
19374;SDS011;9823;50.936;4.046;2023-02-15T13:11:29;59.70;;;30.63;;
19374;SDS011;9823;50.936;4.046;2023-02-15T13:14:03;57.27;;;29.83;;
19374;SDS011;9823;50.936;4.046;2023-02-15T13:16:38;76.43;;;30.33;;
19374;SDS011;9823;50.936;4.046;2023-02-15T13:19:29;58.23;;;29.20;;
19374;SDS011;9823;50.936;4.046;2023-02-15T13:21:51;53.93;;;29.80;;
19374;SDS011;9823;50.936;4.046;2023-02-15T13:24:20;57.13;;;29.13;;
19374;SDS011;9823;50.936;4.046;2023-02-15T13:26:47;65.80;;;29.43;;
19374;SDS011;9823;50.936;4.046;2023-02-15T13:29:18;53.57;;;29.13;;
19374;SDS011;9823;50.936;4.046;2023-02-15T13:31:49;53.93;;;28.47;;
19374;SDS011;9823;50.936;4.046;2023-02-15T13:34:20;57.23;;;28.23;;
19374;SDS011;9823;50.936;4.046;2023-02-15T13:36:57;62.30;;;30.10;;
19374;SDS011;9823;50.936;4.046;2023-02-15T13:39:32;68.33;;;29.97;;
19374;SDS011;9823;50.936;4.046;2023-02-15T13:49:47;50.43;;;27.23;;
19374;SDS011;9823;50.936;4.046;2023-02-15T13:54:57;56.63;;;28.67;;
19374;SDS011;9823;50.936;4.046;2023-02-15T13:57:34;51.13;;;28.37;;
19374;SDS011;9823;50.936;4.046;2023-02-15T14:00:16;63.63;;;29.73;;
19374;SDS011;9823;50.936;4.046;2023-02-15T14:02:52;56.93;;;27.90;;
19374;SDS011;9823;50.936;4.046;2023-02-15T14:18:29;59.27;;;27.57;;
19374;SDS011;9823;50.936;4.046;2023-02-15T14:21:07;48.97;;;27.03;;
19374;SDS011;9823;50.936;4.046;2023-02-15T14:29:22;53.57;;;29.23;;
19374;SDS011;9823;50.936;4.046;2023-02-15T14:31:53;50.23;;;27.53;;
19374;SDS011;9823;50.936;4.046;2023-02-15T14:34:27;59.47;;;28.37;;
19374;SDS011;9823;50.936;4.046;2023-02-15T14:36:56;53.30;;;29.07;;
19374;SDS011;9823;50.936;4.046;2023-02-15T14:39:28;55.07;;;27.23;;
19374;SDS011;9823;50.936;4.046;2023-02-15T14:44:53;54.33;;;28.20;;
19374;SDS011;9823;50.936;4.046;2023-02-15T14:47:27;58.17;;;28.03;;
19374;SDS011;9823;50.936;4.046;2023-02-15T14:49:55;58.97;;;28.37;;
19374;SDS011;9823;50.936;4.046;2023-02-15T14:52:23;57.50;;;27.53;;
19374;SDS011;9823;50.936;4.046;2023-02-15T14:59:55;58.00;;;29.37;;
19374;SDS011;9823;50.936;4.046;2023-02-15T15:05:07;51.13;;;27.23;;
19374;SDS011;9823;50.936;4.046;2023-02-15T15:10:04;53.70;;;26.93;;
19374;SDS011;9823;50.936;4.046;2023-02-15T15:12:43;54.03;;;27.60;;
19374;SDS011;9823;50.936;4.046;2023-02-15T15:28:52;58.27;;;28.17;;
19374;SDS011;9823;50.936;4.046;2023-02-15T15:31:09;63.40;;;29.70;;
19374;SDS011;9823;50.936;4.046;2023-02-15T15:36:31;52.97;;;28.53;;
19374;SDS011;9823;50.936;4.046;2023-02-15T15:41:54;55.57;;;28.50;;
19374;SDS011;9823;50.936;4.046;2023-02-15T15:49:32;62.77;;;29.70;;
19374;SDS011;9823;50.936;4.046;2023-02-15T15:52:01;54.87;;;28.57;;
19374;SDS011;9823;50.936;4.046;2023-02-15T15:54:28;60.20;;;31.07;;
19374;SDS011;9823;50.936;4.046;2023-02-15T15:56:55;57.87;;;30.33;;
19374;SDS011;9823;50.936;4.046;2023-02-15T15:59:24;63.23;;;31.73;;
19374;SDS011;9823;50.936;4.046;2023-02-15T16:01:50;82.20;;;30.90;;
19374;SDS011;9823;50.936;4.046;2023-02-15T16:04:27;69.10;;;32.27;;
19374;SDS011;9823;50.936;4.046;2023-02-15T16:06:55;63.47;;;30.67;;
19374;SDS011;9823;50.936;4.046;2023-02-15T16:11:48;61.90;;;31.17;;
19374;SDS011;9823;50.936;4.046;2023-02-15T16:14:37;69.10;;;31.70;;
19374;SDS011;9823;50.936;4.046;2023-02-15T16:17:04;68.53;;;33.07;;
19374;SDS011;9823;50.936;4.046;2023-02-15T16:19:37;93.87;;;34.03;;
19374;SDS011;9823;50.936;4.046;2023-02-15T16:22:09;64.83;;;30.97;;
19374;SDS011;9823;50.936;4.046;2023-02-15T16:29:52;72.10;;;31.07;;
19374;SDS011;9823;50.936;4.046;2023-02-15T16:37:19;68.20;;;33.03;;
19374;SDS011;9823;50.936;4.046;2023-02-15T16:39:48;72.70;;;33.07;;
19374;SDS011;9823;50.936;4.046;2023-02-15T16:42:17;64.13;;;31.17;;
19374;SDS011;9823;50.936;4.046;2023-02-15T16:44:47;60.50;;;31.53;;
19374;SDS011;9823;50.936;4.046;2023-02-15T16:47:16;74.50;;;29.83;;
19374;SDS011;9823;50.936;4.046;2023-02-15T16:49:44;66.83;;;31.50;;
19374;SDS011;9823;50.936;4.046;2023-02-15T16:52:13;69.57;;;32.50;;
19374;SDS011;9823;50.936;4.046;2023-02-15T16:54:41;63.13;;;32.47;;
19374;SDS011;9823;50.936;4.046;2023-02-15T16:57:18;68.67;;;32.33;;
19374;SDS011;9823;50.936;4.046;2023-02-15T16:59:46;68.83;;;32.87;;
19374;SDS011;9823;50.936;4.046;2023-02-15T17:02:34;73.43;;;33.00;;
19374;SDS011;9823;50.936;4.046;2023-02-15T17:05:06;60.77;;;30.93;;
19374;SDS011;9823;50.936;4.046;2023-02-15T17:07:33;64.73;;;30.23;;
19374;SDS011;9823;50.936;4.046;2023-02-15T17:10:16;65.70;;;32.13;;
19374;SDS011;9823;50.936;4.046;2023-02-15T17:12:53;62.13;;;31.30;;
19374;SDS011;9823;50.936;4.046;2023-02-15T17:17:51;61.77;;;32.77;;
19374;SDS011;9823;50.936;4.046;2023-02-15T17:20:20;64.30;;;31.77;;
19374;SDS011;9823;50.936;4.046;2023-02-15T17:22:46;63.93;;;30.70;;
19374;SDS011;9823;50.936;4.046;2023-02-15T17:25:23;58.80;;;31.67;;
19374;SDS011;9823;50.936;4.046;2023-02-15T17:27:51;65.77;;;31.97;;
19374;SDS011;9823;50.936;4.046;2023-02-15T17:30:29;63.97;;;32.83;;
19374;SDS011;9823;50.936;4.046;2023-02-15T17:33:00;64.63;;;32.50;;
19374;SDS011;9823;50.936;4.046;2023-02-15T17:35:32;64.87;;;32.93;;
19374;SDS011;9823;50.936;4.046;2023-02-15T17:38:03;70.47;;;33.07;;
19374;SDS011;9823;50.936;4.046;2023-02-15T17:40:33;68.40;;;32.90;;
19374;SDS011;9823;50.936;4.046;2023-02-15T17:42:59;65.23;;;33.87;;